sensor_id;sensor_type;location;lat;lon;timestamp;P1;durP1;ratioP1;P2;durP2;ratioP2
56297;SDS011;42208;6.376;-10.782;2023-03-14T00:01:09;38.30;;;14.68;;
56297;SDS011;42208;6.376;-10.782;2023-03-14T00:03:39;36.93;;;15.13;;
56297;SDS011;42208;6.376;-10.782;2023-03-14T00:06:07;27.50;;;13.15;;
56297;SDS011;42208;6.376;-10.782;2023-03-14T00:08:36;28.95;;;14.35;;
56297;SDS011;42208;6.376;-10.782;2023-03-14T00:11:09;31.73;;;14.95;;
56297;SDS011;42208;6.376;-10.782;2023-03-14T00:16:18;26.83;;;13.38;;
56297;SDS011;42208;6.376;-10.782;2023-03-14T00:18:48;39.63;;;14.30;;
56297;SDS011;42208;6.376;-10.782;2023-03-14T00:21:16;65.88;;;23.30;;
56297;SDS011;42208;6.376;-10.782;2023-03-14T00:23:44;76.70;;;29.48;;
56297;SDS011;42208;6.376;-10.782;2023-03-14T00:26:14;75.15;;;30.90;;
56297;SDS011;42208;6.376;-10.782;2023-03-14T00:28:44;32.08;;;17.08;;
56297;SDS011;42208;6.376;-10.782;2023-03-14T00:31:13;42.00;;;17.85;;
56297;SDS011;42208;6.376;-10.782;2023-03-14T00:33:43;74.32;;;26.10;;
56297;SDS011;42208;6.376;-10.782;2023-03-14T00:36:13;121.35;;;41.95;;
56297;SDS011;42208;6.376;-10.782;2023-03-14T00:38:44;67.93;;;26.08;;
56297;SDS011;42208;6.376;-10.782;2023-03-14T00:41:15;40.20;;;16.88;;
56297;SDS011;42208;6.376;-10.782;2023-03-14T00:43:46;32.13;;;14.60;;
56297;SDS011;42208;6.376;-10.782;2023-03-14T00:46:14;84.28;;;34.50;;
56297;SDS011;42208;6.376;-10.782;2023-03-14T00:48:46;94.88;;;39.05;;
56297;SDS011;42208;6.376;-10.782;2023-03-14T00:51:15;70.95;;;28.35;;
56297;SDS011;42208;6.376;-10.782;2023-03-14T00:53:44;90.78;;;31.40;;
56297;SDS011;42208;6.376;-10.782;2023-03-14T00:56:12;94.18;;;36.53;;
56297;SDS011;42208;6.376;-10.782;2023-03-14T00:58:41;78.10;;;40.70;;
56297;SDS011;42208;6.376;-10.782;2023-03-14T01:01:12;63.03;;;31.88;;
56297;SDS011;42208;6.376;-10.782;2023-03-14T01:03:44;45.35;;;21.20;;
56297;SDS011;42208;6.376;-10.782;2023-03-14T01:06:17;67.07;;;31.92;;
56297;SDS011;42208;6.376;-10.782;2023-03-14T01:08:47;77.20;;;38.72;;
56297;SDS011;42208;6.376;-10.782;2023-03-14T01:11:17;62.00;;;29.80;;
56297;SDS011;42208;6.376;-10.782;2023-03-14T01:13:47;67.63;;;28.00;;
56297;SDS011;42208;6.376;-10.782;2023-03-14T01:16:16;64.75;;;28.17;;
56297;SDS011;42208;6.376;-10.782;2023-03-14T01:18:46;63.83;;;29.75;;
56297;SDS011;42208;6.376;-10.782;2023-03-14T01:23:52;69.20;;;32.58;;
56297;SDS011;42208;6.376;-10.782;2023-03-14T01:26:21;93.03;;;33.80;;
56297;SDS011;42208;6.376;-10.782;2023-03-14T01:28:52;115.82;;;49.45;;
56297;SDS011;42208;6.376;-10.782;2023-03-14T01:31:22;120.75;;;50.88;;
56297;SDS011;42208;6.376;-10.782;2023-03-14T01:33:52;111.22;;;48.42;;
56297;SDS011;42208;6.376;-10.782;2023-03-14T01:36:21;92.15;;;47.05;;
56297;SDS011;42208;6.376;-10.782;2023-03-14T01:38:49;99.15;;;42.28;;
56297;SDS011;42208;6.376;-10.782;2023-03-14T01:41:19;84.05;;;41.30;;
56297;SDS011;42208;6.376;-10.782;2023-03-14T01:43:51;79.30;;;40.50;;
56297;SDS011;42208;6.376;-10.782;2023-03-14T01:46:21;79.88;;;39.97;;
56297;SDS011;42208;6.376;-10.782;2023-03-14T01:49:01;96.72;;;44.08;;
56297;SDS011;42208;6.376;-10.782;2023-03-14T01:54:12;82.55;;;41.70;;
56297;SDS011;42208;6.376;-10.782;2023-03-14T01:56:48;85.88;;;40.80;;
56297;SDS011;42208;6.376;-10.782;2023-03-14T01:59:20;100.05;;;45.78;;
56297;SDS011;42208;6.376;-10.782;2023-03-14T02:01:49;105.80;;;45.42;;
56297;SDS011;42208;6.376;-10.782;2023-03-14T02:04:19;99.70;;;45.40;;
56297;SDS011;42208;6.376;-10.782;2023-03-14T02:06:50;99.75;;;47.20;;
56297;SDS011;42208;6.376;-10.782;2023-03-14T02:09:35;96.15;;;44.13;;
56297;SDS011;42208;6.376;-10.782;2023-03-14T02:14:49;93.43;;;41.78;;
56297;SDS011;42208;6.376;-10.782;2023-03-14T02:17:25;99.13;;;42.72;;
56297;SDS011;42208;6.376;-10.782;2023-03-14T02:23:09;67.50;;;33.72;;
56297;SDS011;42208;6.376;-10.782;2023-03-14T02:28:42;74.40;;;32.92;;
56297;SDS011;42208;6.376;-10.782;2023-03-14T02:31:10;65.90;;;34.30;;
56297;SDS011;42208;6.376;-10.782;2023-03-14T02:33:40;69.65;;;33.75;;
56297;SDS011;42208;6.376;-10.782;2023-03-14T02:36:10;64.18;;;29.83;;
56297;SDS011;42208;6.376;-10.782;2023-03-14T02:38:49;71.65;;;33.08;;
56297;SDS011;42208;6.376;-10.782;2023-03-14T02:41:28;70.38;;;34.22;;
56297;SDS011;42208;6.376;-10.782;2023-03-14T02:44:00;76.05;;;34.25;;
56297;SDS011;42208;6.376;-10.782;2023-03-14T02:46:29;68.97;;;32.38;;
56297;SDS011;42208;6.376;-10.782;2023-03-14T02:49:01;68.43;;;32.70;;
56297;SDS011;42208;6.376;-10.782;2023-03-14T02:51:32;75.13;;;35.17;;
56297;SDS011;42208;6.376;-10.782;2023-03-14T02:54:00;62.05;;;30.65;;
56297;SDS011;42208;6.376;-10.782;2023-03-14T02:56:29;63.83;;;29.45;;
56297;SDS011;42208;6.376;-10.782;2023-03-14T02:59:01;63.15;;;29.13;;
56297;SDS011;42208;6.376;-10.782;2023-03-14T03:01:40;75.35;;;32.17;;
56297;SDS011;42208;6.376;-10.782;2023-03-14T03:04:09;67.22;;;32.78;;
56297;SDS011;42208;6.376;-10.782;2023-03-14T03:06:37;64.45;;;31.60;;
56297;SDS011;42208;6.376;-10.782;2023-03-14T03:09:05;69.80;;;31.33;;
56297;SDS011;42208;6.376;-10.782;2023-03-14T03:11:34;70.57;;;33.47;;
56297;SDS011;42208;6.376;-10.782;2023-03-14T03:14:04;58.95;;;29.33;;
56297;SDS011;42208;6.376;-10.782;2023-03-14T03:16:32;70.72;;;32.17;;
56297;SDS011;42208;6.376;-10.782;2023-03-14T03:19:01;67.90;;;33.75;;
56297;SDS011;42208;6.376;-10.782;2023-03-14T03:21:29;68.80;;;33.22;;
56297;SDS011;42208;6.376;-10.782;2023-03-14T03:23:57;71.60;;;32.40;;
56297;SDS011;42208;6.376;-10.782;2023-03-14T03:26:25;66.90;;;32.33;;
56297;SDS011;42208;6.376;-10.782;2023-03-14T03:28:54;55.65;;;29.52;;
56297;SDS011;42208;6.376;-10.782;2023-03-14T03:31:22;62.80;;;27.40;;
56297;SDS011;42208;6.376;-10.782;2023-03-14T03:33:51;71.43;;;33.90;;
56297;SDS011;42208;6.376;-10.782;2023-03-14T03:36:23;68.45;;;31.90;;
56297;SDS011;42208;6.376;-10.782;2023-03-14T03:38:52;70.57;;;33.65;;
56297;SDS011;42208;6.376;-10.782;2023-03-14T03:41:20;73.10;;;35.55;;
56297;SDS011;42208;6.376;-10.782;2023-03-14T03:43:49;85.70;;;42.28;;
56297;SDS011;42208;6.376;-10.782;2023-03-14T03:46:19;91.00;;;43.20;;
56297;SDS011;42208;6.376;-10.782;2023-03-14T03:48:49;80.60;;;38.20;;
56297;SDS011;42208;6.376;-10.782;2023-03-14T03:51:26;67.88;;;33.85;;
56297;SDS011;42208;6.376;-10.782;2023-03-14T03:53:55;65.88;;;33.92;;
56297;SDS011;42208;6.376;-10.782;2023-03-14T03:56:29;80.22;;;42.03;;
56297;SDS011;42208;6.376;-10.782;2023-03-14T03:58:57;77.63;;;39.45;;
56297;SDS011;42208;6.376;-10.782;2023-03-14T04:01:26;99.85;;;48.55;;
56297;SDS011;42208;6.376;-10.782;2023-03-14T04:03:57;97.78;;;42.90;;
56297;SDS011;42208;6.376;-10.782;2023-03-14T04:06:26;94.75;;;38.28;;
56297;SDS011;42208;6.376;-10.782;2023-03-14T04:08:57;91.13;;;42.85;;
56297;SDS011;42208;6.376;-10.782;2023-03-14T04:11:44;80.68;;;39.78;;
56297;SDS011;42208;6.376;-10.782;2023-03-14T04:14:19;101.07;;;42.53;;
56297;SDS011;42208;6.376;-10.782;2023-03-14T04:16:53;73.95;;;39.95;;
56297;SDS011;42208;6.376;-10.782;2023-03-14T04:19:21;85.22;;;42.75;;
56297;SDS011;42208;6.376;-10.782;2023-03-14T04:21:52;82.30;;;42.63;;
56297;SDS011;42208;6.376;-10.782;2023-03-14T04:24:23;84.20;;;40.25;;
56297;SDS011;42208;6.376;-10.782;2023-03-14T04:26:52;85.38;;;44.40;;
56297;SDS011;42208;6.376;-10.782;2023-03-14T04:29:21;74.00;;;44.33;;
56297;SDS011;42208;6.376;-10.782;2023-03-14T04:31:49;95.85;;;45.25;;
56297;SDS011;42208;6.376;-10.782;2023-03-14T04:34:17;109.03;;;53.53;;
56297;SDS011;42208;6.376;-10.782;2023-03-14T04:36:52;106.07;;;50.22;;
56297;SDS011;42208;6.376;-10.782;2023-03-14T04:39:27;88.18;;;45.55;;
56297;SDS011;42208;6.376;-10.782;2023-03-14T04:42:05;96.30;;;47.20;;
56297;SDS011;42208;6.376;-10.782;2023-03-14T04:44:36;95.72;;;47.78;;
56297;SDS011;42208;6.376;-10.782;2023-03-14T04:47:05;89.72;;;42.60;;
56297;SDS011;42208;6.376;-10.782;2023-03-14T04:49:34;96.78;;;47.33;;
56297;SDS011;42208;6.376;-10.782;2023-03-14T04:52:04;98.22;;;49.08;;
56297;SDS011;42208;6.376;-10.782;2023-03-14T04:54:35;77.25;;;41.15;;
56297;SDS011;42208;6.376;-10.782;2023-03-14T04:57:03;62.33;;;36.65;;
56297;SDS011;42208;6.376;-10.782;2023-03-14T04:59:35;65.35;;;34.30;;
56297;SDS011;42208;6.376;-10.782;2023-03-14T05:02:15;79.45;;;40.13;;
56297;SDS011;42208;6.376;-10.782;2023-03-14T05:05:03;88.32;;;45.00;;
56297;SDS011;42208;6.376;-10.782;2023-03-14T05:07:44;87.53;;;44.22;;
56297;SDS011;42208;6.376;-10.782;2023-03-14T05:10:30;97.22;;;49.75;;
56297;SDS011;42208;6.376;-10.782;2023-03-14T05:13:26;84.93;;;43.38;;
56297;SDS011;42208;6.376;-10.782;2023-03-14T05:16:15;83.68;;;40.17;;
56297;SDS011;42208;6.376;-10.782;2023-03-14T05:19:10;70.35;;;33.53;;
56297;SDS011;42208;6.376;-10.782;2023-03-14T05:21:57;94.30;;;51.08;;
56297;SDS011;42208;6.376;-10.782;2023-03-14T05:24:54;84.85;;;36.75;;
56297;SDS011;42208;6.376;-10.782;2023-03-14T05:27:44;68.10;;;36.35;;
56297;SDS011;42208;6.376;-10.782;2023-03-14T05:30:38;93.20;;;44.83;;
56297;SDS011;42208;6.376;-10.782;2023-03-14T05:33:06;83.47;;;41.55;;
56297;SDS011;42208;6.376;-10.782;2023-03-14T05:35:49;88.43;;;42.05;;
56297;SDS011;42208;6.376;-10.782;2023-03-14T05:38:37;86.63;;;40.35;;
56297;SDS011;42208;6.376;-10.782;2023-03-14T05:41:22;68.93;;;37.03;;
56297;SDS011;42208;6.376;-10.782;2023-03-14T05:43:56;79.80;;;38.08;;
56297;SDS011;42208;6.376;-10.782;2023-03-14T05:46:50;65.38;;;31.85;;
56297;SDS011;42208;6.376;-10.782;2023-03-14T05:49:38;58.70;;;31.17;;
56297;SDS011;42208;6.376;-10.782;2023-03-14T05:52:14;87.40;;;37.03;;
56297;SDS011;42208;6.376;-10.782;2023-03-14T05:55:03;66.97;;;32.63;;
56297;SDS011;42208;6.376;-10.782;2023-03-14T05:57:46;73.07;;;35.20;;
56297;SDS011;42208;6.376;-10.782;2023-03-14T06:00:35;67.95;;;32.97;;
56297;SDS011;42208;6.376;-10.782;2023-03-14T06:03:19;70.25;;;35.08;;
56297;SDS011;42208;6.376;-10.782;2023-03-14T06:05:51;69.15;;;35.85;;
56297;SDS011;42208;6.376;-10.782;2023-03-14T06:08:21;60.97;;;29.98;;
56297;SDS011;42208;6.376;-10.782;2023-03-14T06:10:50;54.58;;;30.90;;
56297;SDS011;42208;6.376;-10.782;2023-03-14T06:13:24;70.60;;;33.90;;
56297;SDS011;42208;6.376;-10.782;2023-03-14T06:27:18;71.00;;;35.63;;
56297;SDS011;42208;6.376;-10.782;2023-03-14T06:29:52;70.03;;;38.47;;
56297;SDS011;42208;6.376;-10.782;2023-03-14T06:32:22;77.60;;;38.33;;
56297;SDS011;42208;6.376;-10.782;2023-03-14T06:34:54;81.20;;;40.65;;
56297;SDS011;42208;6.376;-10.782;2023-03-14T06:37:23;93.57;;;41.88;;
56297;SDS011;42208;6.376;-10.782;2023-03-14T06:39:52;79.82;;;36.63;;
56297;SDS011;42208;6.376;-10.782;2023-03-14T06:42:40;76.80;;;33.40;;
56297;SDS011;42208;6.376;-10.782;2023-03-14T06:45:09;84.38;;;36.58;;
56297;SDS011;42208;6.376;-10.782;2023-03-14T06:47:38;70.88;;;31.77;;
56297;SDS011;42208;6.376;-10.782;2023-03-14T06:50:08;61.53;;;28.67;;
56297;SDS011;42208;6.376;-10.782;2023-03-14T06:52:37;74.10;;;33.00;;
56297;SDS011;42208;6.376;-10.782;2023-03-14T06:55:05;64.70;;;28.13;;
56297;SDS011;42208;6.376;-10.782;2023-03-14T06:57:35;55.85;;;24.65;;
56297;SDS011;42208;6.376;-10.782;2023-03-14T07:00:04;50.05;;;24.95;;
56297;SDS011;42208;6.376;-10.782;2023-03-14T07:02:37;62.60;;;30.90;;
56297;SDS011;42208;6.376;-10.782;2023-03-14T07:05:22;47.55;;;24.95;;
56297;SDS011;42208;6.376;-10.782;2023-03-14T07:07:50;54.42;;;25.02;;
56297;SDS011;42208;6.376;-10.782;2023-03-14T07:10:19;61.47;;;26.08;;
56297;SDS011;42208;6.376;-10.782;2023-03-14T07:12:49;62.83;;;30.75;;
56297;SDS011;42208;6.376;-10.782;2023-03-14T07:15:17;48.40;;;26.88;;
56297;SDS011;42208;6.376;-10.782;2023-03-14T07:17:50;55.03;;;30.23;;
56297;SDS011;42208;6.376;-10.782;2023-03-14T07:20:21;49.13;;;26.38;;
56297;SDS011;42208;6.376;-10.782;2023-03-14T07:22:50;42.22;;;24.88;;
56297;SDS011;42208;6.376;-10.782;2023-03-14T07:25:29;46.83;;;24.17;;
56297;SDS011;42208;6.376;-10.782;2023-03-14T07:27:58;56.33;;;29.67;;
56297;SDS011;42208;6.376;-10.782;2023-03-14T07:30:26;45.13;;;25.58;;
56297;SDS011;42208;6.376;-10.782;2023-03-14T07:32:57;58.47;;;29.75;;
56297;SDS011;42208;6.376;-10.782;2023-03-14T07:35:27;52.35;;;30.25;;
56297;SDS011;42208;6.376;-10.782;2023-03-14T07:37:56;45.60;;;26.33;;
56297;SDS011;42208;6.376;-10.782;2023-03-14T07:40:32;43.85;;;22.88;;
56297;SDS011;42208;6.376;-10.782;2023-03-14T07:43:03;46.78;;;22.38;;
56297;SDS011;42208;6.376;-10.782;2023-03-14T07:45:47;42.65;;;23.17;;
56297;SDS011;42208;6.376;-10.782;2023-03-14T07:48:17;33.20;;;20.08;;
56297;SDS011;42208;6.376;-10.782;2023-03-14T07:50:49;40.60;;;22.98;;
56297;SDS011;42208;6.376;-10.782;2023-03-14T07:53:18;37.58;;;21.25;;
56297;SDS011;42208;6.376;-10.782;2023-03-14T07:55:46;31.63;;;18.92;;
56297;SDS011;42208;6.376;-10.782;2023-03-14T07:58:15;22.17;;;16.48;;
56297;SDS011;42208;6.376;-10.782;2023-03-14T08:00:43;32.00;;;19.50;;
56297;SDS011;42208;6.376;-10.782;2023-03-14T08:03:11;32.30;;;17.95;;
56297;SDS011;42208;6.376;-10.782;2023-03-14T08:05:40;39.20;;;17.55;;
56297;SDS011;42208;6.376;-10.782;2023-03-14T08:08:08;38.75;;;19.77;;
56297;SDS011;42208;6.376;-10.782;2023-03-14T08:10:37;26.73;;;17.92;;
56297;SDS011;42208;6.376;-10.782;2023-03-14T08:13:07;32.22;;;17.35;;
56297;SDS011;42208;6.376;-10.782;2023-03-14T08:15:36;36.75;;;18.58;;
56297;SDS011;42208;6.376;-10.782;2023-03-14T08:18:05;43.45;;;19.63;;
56297;SDS011;42208;6.376;-10.782;2023-03-14T08:20:33;28.20;;;16.05;;
56297;SDS011;42208;6.376;-10.782;2023-03-14T08:23:03;36.42;;;17.90;;
56297;SDS011;42208;6.376;-10.782;2023-03-14T08:25:31;28.45;;;16.05;;
56297;SDS011;42208;6.376;-10.782;2023-03-14T08:28:00;36.70;;;16.25;;
56297;SDS011;42208;6.376;-10.782;2023-03-14T08:30:28;27.38;;;14.98;;
56297;SDS011;42208;6.376;-10.782;2023-03-14T08:32:57;36.72;;;17.42;;
56297;SDS011;42208;6.376;-10.782;2023-03-14T08:35:25;34.55;;;19.73;;
56297;SDS011;42208;6.376;-10.782;2023-03-14T08:37:54;34.85;;;17.67;;
56297;SDS011;42208;6.376;-10.782;2023-03-14T08:40:23;27.88;;;16.75;;
56297;SDS011;42208;6.376;-10.782;2023-03-14T08:42:51;41.47;;;19.35;;
56297;SDS011;42208;6.376;-10.782;2023-03-14T08:45:19;43.20;;;20.52;;
56297;SDS011;42208;6.376;-10.782;2023-03-14T08:47:48;40.58;;;20.58;;
56297;SDS011;42208;6.376;-10.782;2023-03-14T08:50:16;43.50;;;20.27;;
56297;SDS011;42208;6.376;-10.782;2023-03-14T08:52:44;48.88;;;20.13;;
56297;SDS011;42208;6.376;-10.782;2023-03-14T08:55:13;77.35;;;22.15;;
56297;SDS011;42208;6.376;-10.782;2023-03-14T08:57:42;45.28;;;18.52;;
56297;SDS011;42208;6.376;-10.782;2023-03-14T09:00:10;71.90;;;20.48;;
56297;SDS011;42208;6.376;-10.782;2023-03-14T09:02:39;44.92;;;19.48;;
56297;SDS011;42208;6.376;-10.782;2023-03-14T09:05:07;46.20;;;21.00;;
56297;SDS011;42208;6.376;-10.782;2023-03-14T09:07:36;56.38;;;20.83;;
56297;SDS011;42208;6.376;-10.782;2023-03-14T09:10:06;58.30;;;23.23;;
56297;SDS011;42208;6.376;-10.782;2023-03-14T09:12:36;53.83;;;21.02;;
56297;SDS011;42208;6.376;-10.782;2023-03-14T09:15:06;60.58;;;24.88;;
56297;SDS011;42208;6.376;-10.782;2023-03-14T09:17:34;87.63;;;29.75;;
56297;SDS011;42208;6.376;-10.782;2023-03-14T09:20:04;73.55;;;21.27;;
56297;SDS011;42208;6.376;-10.782;2023-03-14T09:22:34;156.65;;;36.42;;
56297;SDS011;42208;6.376;-10.782;2023-03-14T09:25:05;54.03;;;20.75;;
56297;SDS011;42208;6.376;-10.782;2023-03-14T09:27:34;42.38;;;17.52;;
56297;SDS011;42208;6.376;-10.782;2023-03-14T09:30:02;66.05;;;25.63;;
56297;SDS011;42208;6.376;-10.782;2023-03-14T09:32:31;34.60;;;15.57;;
56297;SDS011;42208;6.376;-10.782;2023-03-14T09:34:59;36.08;;;15.40;;
56297;SDS011;42208;6.376;-10.782;2023-03-14T09:37:28;34.10;;;13.30;;
56297;SDS011;42208;6.376;-10.782;2023-03-14T09:39:56;39.22;;;13.35;;
56297;SDS011;42208;6.376;-10.782;2023-03-14T09:42:25;47.13;;;16.67;;
56297;SDS011;42208;6.376;-10.782;2023-03-14T09:44:59;58.65;;;20.35;;
56297;SDS011;42208;6.376;-10.782;2023-03-14T09:47:30;29.92;;;13.70;;
56297;SDS011;42208;6.376;-10.782;2023-03-14T09:50:00;36.28;;;10.65;;
56297;SDS011;42208;6.376;-10.782;2023-03-14T09:52:32;39.33;;;16.90;;
56297;SDS011;42208;6.376;-10.782;2023-03-14T09:55:10;57.83;;;19.90;;
56297;SDS011;42208;6.376;-10.782;2023-03-14T09:57:49;25.90;;;10.63;;
56297;SDS011;42208;6.376;-10.782;2023-03-14T10:00:23;73.30;;;20.25;;
56297;SDS011;42208;6.376;-10.782;2023-03-14T10:03:37;32.80;;;12.38;;
56297;SDS011;42208;6.376;-10.782;2023-03-14T10:05:49;35.17;;;11.82;;
56297;SDS011;42208;6.376;-10.782;2023-03-14T10:08:18;35.97;;;12.45;;
56297;SDS011;42208;6.376;-10.782;2023-03-14T10:10:46;25.75;;;10.60;;
56297;SDS011;42208;6.376;-10.782;2023-03-14T10:15:51;25.48;;;10.23;;
56297;SDS011;42208;6.376;-10.782;2023-03-14T10:18:22;27.30;;;10.57;;
56297;SDS011;42208;6.376;-10.782;2023-03-14T10:23:53;43.42;;;17.73;;
56297;SDS011;42208;6.376;-10.782;2023-03-14T10:26:26;25.77;;;10.98;;
56297;SDS011;42208;6.376;-10.782;2023-03-14T10:29:02;19.33;;;8.80;;
56297;SDS011;42208;6.376;-10.782;2023-03-14T10:31:50;25.73;;;10.52;;
56297;SDS011;42208;6.376;-10.782;2023-03-14T10:34:37;31.30;;;9.95;;
56297;SDS011;42208;6.376;-10.782;2023-03-14T10:37:22;32.15;;;12.38;;
56297;SDS011;42208;6.376;-10.782;2023-03-14T10:39:54;43.00;;;12.10;;
56297;SDS011;42208;6.376;-10.782;2023-03-14T10:42:27;37.35;;;11.60;;
56297;SDS011;42208;6.376;-10.782;2023-03-14T10:44:58;39.17;;;20.43;;
56297;SDS011;42208;6.376;-10.782;2023-03-14T10:47:29;35.55;;;15.65;;
56297;SDS011;42208;6.376;-10.782;2023-03-14T10:53:03;43.90;;;20.25;;
56297;SDS011;42208;6.376;-10.782;2023-03-14T10:55:49;54.83;;;20.08;;
56297;SDS011;42208;6.376;-10.782;2023-03-14T10:58:27;43.33;;;17.23;;
56297;SDS011;42208;6.376;-10.782;2023-03-14T11:01:02;24.90;;;9.30;;
56297;SDS011;42208;6.376;-10.782;2023-03-14T11:04:14;30.53;;;11.73;;
56297;SDS011;42208;6.376;-10.782;2023-03-14T11:06:59;25.30;;;9.80;;
56297;SDS011;42208;6.376;-10.782;2023-03-14T11:21:49;29.35;;;9.10;;
56297;SDS011;42208;6.376;-10.782;2023-03-14T11:27:17;32.55;;;10.63;;
56297;SDS011;42208;6.376;-10.782;2023-03-14T11:32:46;24.67;;;8.60;;
56297;SDS011;42208;6.376;-10.782;2023-03-14T11:40:52;29.00;;;9.80;;
56297;SDS011;42208;6.376;-10.782;2023-03-14T11:46:03;48.58;;;17.45;;
56297;SDS011;42208;6.376;-10.782;2023-03-14T11:51:15;35.08;;;12.25;;
56297;SDS011;42208;6.376;-10.782;2023-03-14T11:54:18;24.33;;;8.88;;
56297;SDS011;42208;6.376;-10.782;2023-03-14T11:57:12;38.25;;;16.10;;
56297;SDS011;42208;6.376;-10.782;2023-03-14T12:13:16;42.40;;;12.57;;
56297;SDS011;42208;6.376;-10.782;2023-03-14T12:18:28;61.20;;;24.98;;
56297;SDS011;42208;6.376;-10.782;2023-03-14T12:21:06;78.70;;;28.48;;
56297;SDS011;42208;6.376;-10.782;2023-03-14T12:23:52;60.33;;;24.85;;
56297;SDS011;42208;6.376;-10.782;2023-03-14T12:26:24;51.50;;;20.95;;
56297;SDS011;42208;6.376;-10.782;2023-03-14T12:39:35;60.90;;;23.25;;
56297;SDS011;42208;6.376;-10.782;2023-03-14T12:42:36;67.72;;;26.33;;
56297;SDS011;42208;6.376;-10.782;2023-03-14T12:45:20;32.95;;;13.00;;
56297;SDS011;42208;6.376;-10.782;2023-03-14T12:48:31;37.20;;;13.00;;
56297;SDS011;42208;6.376;-10.782;2023-03-14T12:51:03;28.85;;;11.18;;
56297;SDS011;42208;6.376;-10.782;2023-03-14T12:59:15;26.35;;;10.43;;
56297;SDS011;42208;6.376;-10.782;2023-03-14T13:04:34;22.20;;;9.88;;
56297;SDS011;42208;6.376;-10.782;2023-03-14T13:07:11;29.10;;;9.20;;
56297;SDS011;42208;6.376;-10.782;2023-03-14T13:09:59;36.35;;;10.90;;
56297;SDS011;42208;6.376;-10.782;2023-03-14T13:15:38;38.67;;;17.77;;
56297;SDS011;42208;6.376;-10.782;2023-03-14T13:18:11;23.00;;;10.30;;
56297;SDS011;42208;6.376;-10.782;2023-03-14T13:23:24;35.53;;;10.38;;
56297;SDS011;42208;6.376;-10.782;2023-03-14T13:25:55;28.45;;;8.93;;
56297;SDS011;42208;6.376;-10.782;2023-03-14T13:28:24;44.60;;;11.60;;
56297;SDS011;42208;6.376;-10.782;2023-03-14T13:31:01;39.40;;;14.90;;
56297;SDS011;42208;6.376;-10.782;2023-03-14T13:33:30;22.50;;;10.65;;
56297;SDS011;42208;6.376;-10.782;2023-03-14T13:36:02;31.40;;;9.70;;
56297;SDS011;42208;6.376;-10.782;2023-03-14T13:38:33;55.35;;;17.90;;
56297;SDS011;42208;6.376;-10.782;2023-03-14T13:41:04;33.17;;;12.60;;
56297;SDS011;42208;6.376;-10.782;2023-03-14T13:43:35;39.42;;;12.35;;
56297;SDS011;42208;6.376;-10.782;2023-03-14T13:46:12;25.27;;;8.70;;
56297;SDS011;42208;6.376;-10.782;2023-03-14T13:48:47;29.00;;;9.07;;
56297;SDS011;42208;6.376;-10.782;2023-03-14T13:51:22;27.58;;;9.55;;
56297;SDS011;42208;6.376;-10.782;2023-03-14T13:53:54;23.80;;;8.68;;
56297;SDS011;42208;6.376;-10.782;2023-03-14T13:56:27;32.85;;;9.65;;
56297;SDS011;42208;6.376;-10.782;2023-03-14T13:58:57;28.83;;;8.88;;
56297;SDS011;42208;6.376;-10.782;2023-03-14T14:01:26;28.13;;;10.32;;
56297;SDS011;42208;6.376;-10.782;2023-03-14T14:04:14;27.95;;;13.20;;
56297;SDS011;42208;6.376;-10.782;2023-03-14T14:06:44;34.10;;;11.40;;
56297;SDS011;42208;6.376;-10.782;2023-03-14T14:09:23;28.60;;;9.13;;
56297;SDS011;42208;6.376;-10.782;2023-03-14T14:12:02;32.65;;;8.88;;
56297;SDS011;42208;6.376;-10.782;2023-03-14T14:14:47;17.35;;;8.68;;
56297;SDS011;42208;6.376;-10.782;2023-03-14T14:17:32;32.97;;;8.95;;
56297;SDS011;42208;6.376;-10.782;2023-03-14T14:20:04;25.42;;;9.05;;
56297;SDS011;42208;6.376;-10.782;2023-03-14T14:22:34;37.65;;;9.68;;
56297;SDS011;42208;6.376;-10.782;2023-03-14T14:25:03;30.55;;;13.02;;
56297;SDS011;42208;6.376;-10.782;2023-03-14T14:27:39;30.52;;;10.38;;
56297;SDS011;42208;6.376;-10.782;2023-03-14T14:32:47;24.92;;;9.68;;
56297;SDS011;42208;6.376;-10.782;2023-03-14T14:38:02;36.47;;;10.23;;
56297;SDS011;42208;6.376;-10.782;2023-03-14T14:40:42;28.10;;;9.32;;
56297;SDS011;42208;6.376;-10.782;2023-03-14T14:43:21;21.90;;;8.00;;
56297;SDS011;42208;6.376;-10.782;2023-03-14T14:45:52;29.73;;;8.68;;
56297;SDS011;42208;6.376;-10.782;2023-03-14T14:48:22;23.73;;;8.70;;
56297;SDS011;42208;6.376;-10.782;2023-03-14T14:50:56;22.67;;;8.55;;
56297;SDS011;42208;6.376;-10.782;2023-03-14T14:53:38;35.75;;;11.85;;
56297;SDS011;42208;6.376;-10.782;2023-03-14T14:56:19;27.85;;;9.30;;
56297;SDS011;42208;6.376;-10.782;2023-03-14T14:58:57;34.63;;;10.68;;
56297;SDS011;42208;6.376;-10.782;2023-03-14T15:01:37;26.17;;;7.85;;
56297;SDS011;42208;6.376;-10.782;2023-03-14T15:04:10;16.77;;;8.07;;
56297;SDS011;42208;6.376;-10.782;2023-03-14T15:06:44;35.50;;;8.65;;
56297;SDS011;42208;6.376;-10.782;2023-03-14T15:09:16;25.30;;;8.75;;
56297;SDS011;42208;6.376;-10.782;2023-03-14T15:11:44;20.10;;;8.00;;
56297;SDS011;42208;6.376;-10.782;2023-03-14T15:14:13;28.58;;;8.05;;
56297;SDS011;42208;6.376;-10.782;2023-03-14T15:16:41;27.50;;;8.73;;
56297;SDS011;42208;6.376;-10.782;2023-03-14T15:19:20;25.88;;;7.50;;
56297;SDS011;42208;6.376;-10.782;2023-03-14T15:21:54;32.63;;;9.73;;
56297;SDS011;42208;6.376;-10.782;2023-03-14T15:24:23;31.45;;;8.13;;
56297;SDS011;42208;6.376;-10.782;2023-03-14T15:26:51;35.72;;;9.40;;
56297;SDS011;42208;6.376;-10.782;2023-03-14T15:29:20;21.08;;;8.32;;
56297;SDS011;42208;6.376;-10.782;2023-03-14T15:31:48;44.28;;;8.55;;
56297;SDS011;42208;6.376;-10.782;2023-03-14T15:34:16;24.85;;;7.72;;
56297;SDS011;42208;6.376;-10.782;2023-03-14T15:36:45;20.98;;;8.13;;
56297;SDS011;42208;6.376;-10.782;2023-03-14T15:39:13;36.60;;;9.52;;
56297;SDS011;42208;6.376;-10.782;2023-03-14T15:41:41;25.42;;;7.85;;
56297;SDS011;42208;6.376;-10.782;2023-03-14T15:44:10;31.13;;;9.00;;
56297;SDS011;42208;6.376;-10.782;2023-03-14T15:46:38;35.38;;;8.50;;
56297;SDS011;42208;6.376;-10.782;2023-03-14T15:49:07;31.83;;;8.10;;
56297;SDS011;42208;6.376;-10.782;2023-03-14T15:51:36;27.52;;;8.82;;
56297;SDS011;42208;6.376;-10.782;2023-03-14T15:54:07;22.30;;;7.45;;
56297;SDS011;42208;6.376;-10.782;2023-03-14T15:56:35;30.08;;;8.10;;
56297;SDS011;42208;6.376;-10.782;2023-03-14T15:59:06;28.60;;;7.57;;
56297;SDS011;42208;6.376;-10.782;2023-03-14T16:01:35;22.45;;;7.97;;
56297;SDS011;42208;6.376;-10.782;2023-03-14T16:04:03;24.70;;;8.32;;
56297;SDS011;42208;6.376;-10.782;2023-03-14T16:06:32;22.83;;;7.25;;
56297;SDS011;42208;6.376;-10.782;2023-03-14T16:09:00;35.10;;;7.28;;
56297;SDS011;42208;6.376;-10.782;2023-03-14T16:11:28;34.70;;;9.27;;
56297;SDS011;42208;6.376;-10.782;2023-03-14T16:13:57;26.85;;;7.95;;
56297;SDS011;42208;6.376;-10.782;2023-03-14T16:16:25;17.42;;;7.57;;
56297;SDS011;42208;6.376;-10.782;2023-03-14T16:18:53;21.98;;;6.90;;
56297;SDS011;42208;6.376;-10.782;2023-03-14T16:21:22;29.23;;;7.72;;
56297;SDS011;42208;6.376;-10.782;2023-03-14T16:23:50;19.90;;;6.53;;
56297;SDS011;42208;6.376;-10.782;2023-03-14T16:26:19;21.20;;;7.88;;
56297;SDS011;42208;6.376;-10.782;2023-03-14T16:28:47;25.10;;;7.47;;
56297;SDS011;42208;6.376;-10.782;2023-03-14T16:31:17;35.15;;;11.13;;
56297;SDS011;42208;6.376;-10.782;2023-03-14T16:33:46;31.45;;;12.30;;
56297;SDS011;42208;6.376;-10.782;2023-03-14T16:36:14;27.73;;;9.05;;